Benoit, Mississippi
Current Conditions -  °F | °C
As of 1:53 PM on Thursday 29 Jan 2015 (Local Time) from KGLH Reporting Station
Clear Clear  
Wind Chill: 70°   Ceiling: Unl
Heat Index: 70°   Visibility: 10mi
Dew Point: 50°   Wind: 10mph
Humidity: 49%   Direction: 280°W
Pressure: 30.11"   Gusts: NA
Location:  33.65°N, 91.01°W
Report Text: KGLH 291953Z AUTO 28009KT 10SM CLR 21/10 A3011 RMK AO2 SLP203 T02110100
Loading
Personal Weather Stations






























Interactive Weather Map New forecast layout! Learn more

10-Day Weather Forecast

Advertisements
Track Severe Weather on mobile